Time;durP1;ratioP1;P1;durP2;ratioP2;P2;SDS_P1;SDS_P2;PMS_P1;PMS_P2;Temp;Humidity;BMP_temperature;BMP_pressure;BME280_temperature;BME280_humidity;BME280_pressure;Samples;Min_cycle;Max_cycle;Signal;HPM_P1;HPM_P2
2021/08/22 00:00:27;;;;;;;;;0.00;0.00;;;;;27.30;42.61;100972.41;5074248;28;45507;-66
2021/08/22 00:02:53;;;;;;;;;0.00;0.00;;;;;27.30;43.01;100966.94;5055611;28;45354;-67
2021/08/22 00:05:18;;;;;;;;;0.00;0.00;;;;;27.28;42.65;100960.66;5073897;28;45466;-66
2021/08/22 00:07:44;;;;;;;;;0.00;0.00;;;;;27.30;42.52;100966.94;5074192;28;45393;-66
2021/08/22 00:10:10;;;;;;;;;0.00;0.00;;;;;27.31;42.92;100957.78;5074226;28;45840;-66
2021/08/22 00:12:35;;;;;;;;;0.00;0.00;;;;;27.29;43.11;100954.25;5074019;28;45548;-66
2021/08/22 00:15:03;;;;;;;;;0.00;0.00;;;;;27.25;42.79;100949.94;5074104;28;45413;-66
2021/08/22 00:17:28;;;;;;;;;0.00;0.00;;;;;27.29;42.59;100954.25;5073970;28;45460;-66
2021/08/22 00:19:53;;;;;;;;;0.00;0.00;;;;;27.28;43.20;100957.94;5074282;28;45354;-66
2021/08/22 00:22:19;;;;;;;;;0.00;0.00;;;;;27.30;42.57;100958.75;5073719;28;46595;-66
2021/08/22 00:24:44;;;;;;;;;0.00;0.00;;;;;27.27;43.07;100945.25;5073755;28;45477;-66
2021/08/22 00:27:10;;;;;;;;;0.00;0.00;;;;;27.29;42.73;100962.47;5075824;28;45426;-66
2021/08/22 00:29:35;;;;;;;;;0.00;0.00;;;;;27.31;42.85;100966.00;5077655;28;45482;-66
2021/08/22 00:32:01;;;;;;;;;0.00;0.00;;;;;27.30;42.41;100966.94;5075934;28;45780;-66
2021/08/22 00:34:27;;;;;;;;;0.00;0.00;;;;;27.30;43.19;100966.94;5058848;28;45498;-66
2021/08/22 00:36:54;;;;;;;;;0.00;0.00;;;;;27.31;42.37;100970.56;5077263;28;45472;-66
2021/08/22 00:39:20;;;;;;;;;0.00;0.00;;;;;27.31;42.35;100973.31;5077596;28;45552;-66
2021/08/22 00:41:46;;;;;;;;;0.00;0.00;;;;;27.30;42.93;100971.53;5077021;28;46156;-66
2021/08/22 00:44:11;;;;;;;;;0.00;0.00;;;;;27.28;43.01;100971.59;5076916;28;45470;-66
2021/08/22 00:46:37;;;;;;;;;0.00;0.00;;;;;27.29;42.57;100981.56;5059112;28;45429;-66
2021/08/22 00:49:05;;;;;;;;;0.00;0.00;;;;;27.28;42.99;100973.44;5077244;28;45547;-66
2021/08/22 00:51:32;;;;;;;;;0.00;0.00;;;;;27.28;43.05;100976.19;5076439;28;46372;-66
2021/08/22 00:53:57;;;;;;;;;0.00;0.00;;;;;27.27;43.02;100983.50;5076835;28;45445;-66
2021/08/22 00:56:23;;;;;;;;;0.00;0.00;;;;;27.27;42.58;100971.69;5076926;28;45407;-66
2021/08/22 00:58:48;;;;;;;;;0.00;0.00;;;;;27.28;43.13;100987.97;5077249;28;45412;-66
2021/08/22 01:01:24;;;;;;;;;0.00;0.00;;;;;27.28;42.78;100984.38;5077371;28;45419;-65
2021/08/22 01:04:00;;;;;;;;;0.00;0.00;;;;;27.27;42.46;100983.50;5076721;28;45446;-65
2021/08/22 01:07:10;;;;;;;;;0.00;0.00;;;;;27.27;42.92;100988.97;5076731;28;45357;-65
2021/08/22 01:09:43;;;;;;;;;0.00;0.00;;;;;27.26;43.06;100987.19;4994011;28;45506;-65
2021/08/22 01:12:20;;;;;;;;;0.00;0.00;;;;;27.26;43.04;100995.38;4993548;28;45835;-65
2021/08/22 01:14:48;;;;;;;;;0.00;0.00;;;;;27.25;42.71;100990.00;4993931;28;45504;-65
2021/08/22 01:17:16;;;;;;;;;0.00;0.00;;;;;27.24;42.67;100986.38;4993784;28;45523;-65
2021/08/22 01:19:41;;;;;;;;;0.00;0.00;;;;;27.24;43.10;100996.41;4977514;28;45551;-65
2021/08/22 01:22:08;;;;;;;;;0.00;0.00;;;;;27.24;43.29;100991.84;4993547;28;45454;-65
2021/08/22 01:24:36;;;;;;;;;0.00;0.00;;;;;27.23;42.57;100998.28;4977157;28;45545;-65
2021/08/22 01:27:04;;;;;;;;;0.00;0.00;;;;;27.22;42.56;101007.38;4993946;28;45540;-65
2021/08/22 01:29:42;;;;;;;;;0.00;0.00;;;;;27.23;43.19;101003.75;4993976;28;45505;-65
2021/08/22 01:32:09;;;;;;;;;0.00;0.00;;;;;27.22;43.23;101011.97;4993094;28;46410;-65
2021/08/22 01:34:35;;;;;;;;;0.00;0.00;;;;;27.22;43.16;101014.69;4993918;28;45473;-65
2021/08/22 01:37:01;;;;;;;;;0.00;0.00;;;;;27.22;42.76;101012.84;4993850;28;45660;-65
2021/08/22 01:39:27;;;;;;;;;0.00;0.00;;;;;27.21;43.00;101011.09;4993158;28;45617;-65
2021/08/22 01:41:54;;;;;;;;;0.00;0.00;;;;;27.21;42.89;101008.34;4993442;28;45454;-65
2021/08/22 01:44:20;;;;;;;;;0.00;0.00;;;;;27.20;42.84;101003.84;5001528;28;45453;-65
2021/08/22 01:46:47;;;;;;;;;0.00;0.00;;;;;27.20;43.35;101006.56;5055784;28;45442;-65
2021/08/22 01:49:13;;;;;;;;;0.00;0.00;;;;;27.20;42.93;101008.44;5055808;28;45566;-65
2021/08/22 01:51:40;;;;;;;;;0.00;0.00;;;;;27.20;43.14;101006.56;5055710;28;46385;-66
2021/08/22 01:54:07;;;;;;;;;0.00;0.00;;;;;27.20;43.14;101006.56;5055689;28;45461;-66
2021/08/22 01:56:34;;;;;;;;;0.00;0.00;;;;;27.20;42.58;101006.56;5055781;28;45634;-66
2021/08/22 01:59:04;;;;;;;;;0.00;0.00;;;;;27.19;43.01;101007.56;5056072;28;45474;-66
2021/08/22 02:01:29;;;;;;;;;0.00;0.00;;;;;27.19;43.26;101007.56;5055458;28;46191;-66
2021/08/22 02:04:08;;;;;;;;;0.00;0.00;;;;;27.20;43.21;101013.88;5055406;28;45466;-66
2021/08/22 02:07:01;;;;;;;;;0.00;0.00;;;;;27.17;42.85;101009.47;5055585;28;45417;-66
2021/08/22 02:10:05;;;;;;;;;0.00;0.00;;;;;27.19;42.73;101014.84;5055201;28;45808;-66
2021/08/22 02:12:31;;;;;;;;;0.00;0.00;;;;;27.17;43.29;101012.22;5055182;28;45388;-66
2021/08/22 02:15:02;;;;;;;;;0.00;0.00;;;;;27.16;42.78;101012.28;5055534;28;45536;-66
2021/08/22 02:17:31;;;;;;;;;0.00;0.00;;;;;27.14;42.83;101009.63;5055426;28;45444;-66
2021/08/22 02:19:58;;;;;;;;;0.00;0.00;;;;;27.16;42.98;101017.75;5055360;28;45507;-66
2021/08/22 02:22:24;;;;;;;;;0.00;0.00;;;;;27.15;43.30;101016.88;5055137;28;45432;-66
2021/08/22 02:24:51;;;;;;;;;0.00;0.00;;;;;27.13;42.94;101013.34;5054998;28;45522;-66
2021/08/22 02:27:17;;;;;;;;;0.00;0.00;;;;;27.14;43.21;101020.53;5055256;28;45358;-66
2021/08/22 02:29:49;;;;;;;;;0.00;0.00;;;;;27.11;43.29;101018.00;5055553;28;45403;-66
2021/08/22 02:32:14;;;;;;;;;0.00;0.00;;;;;27.12;42.77;101019.75;5063146;28;45361;-66
2021/08/22 02:34:40;;;;;;;;;0.33;0.00;;;;;27.12;43.44;101017.00;5075385;28;45429;-66
2021/08/22 02:37:05;;;;;;;;;0.00;0.00;;;;;27.12;42.84;101019.75;5075476;28;45525;-66
2021/08/22 02:39:31;;;;;;;;;0.00;0.00;;;;;27.10;43.03;101016.19;5075691;28;45463;-66
2021/08/22 02:41:56;;;;;;;;;0.00;0.00;;;;;27.11;43.38;101016.13;5074993;28;45501;-66
2021/08/22 02:44:22;;;;;;;;;0.00;0.00;;;;;27.09;42.97;101009.88;5075597;28;45365;-66
2021/08/22 02:46:47;;;;;;;;;0.00;0.00;;;;;27.07;43.44;101010.91;5073962;28;45397;-66
2021/08/22 02:49:12;;;;;;;;;0.00;0.00;;;;;27.08;43.33;101020.84;5075123;28;45724;-66
2021/08/22 02:51:39;;;;;;;;;0.00;0.00;;;;;27.04;43.41;101014.66;5074446;28;45563;-66
2021/08/22 02:54:04;;;;;;;;;0.00;0.00;;;;;27.07;43.46;101024.56;5074958;28;45851;-66
2021/08/22 02:56:30;;;;;;;;;0.00;0.00;;;;;27.06;42.94;101023.66;5074833;28;45439;-66
2021/08/22 02:58:55;;;;;;;;;0.00;0.00;;;;;27.06;43.21;101014.59;5075247;28;45456;-66
2021/08/22 03:01:20;;;;;;;;;0.00;0.00;;;;;27.05;43.42;101026.47;5074955;27;45805;-66
2021/08/22 03:03:46;;;;;;;;;0.00;0.00;;;;;27.04;42.92;101019.25;5056698;28;45931;-66
2021/08/22 03:06:11;;;;;;;;;0.00;0.00;;;;;27.03;42.93;101017.50;5075029;28;45484;-66
2021/08/22 03:08:36;;;;;;;;;0.00;0.00;;;;;27.04;42.91;101017.38;5075401;28;45533;-66
2021/08/22 03:11:02;;;;;;;;;0.00;0.00;;;;;27.03;42.94;101017.50;5074787;28;45529;-66
2021/08/22 03:13:27;;;;;;;;;0.00;0.00;;;;;27.02;43.48;101015.69;5074623;28;45440;-66
2021/08/22 03:15:53;;;;;;;;;0.00;0.00;;;;;27.00;43.32;101006.72;5056945;28;45698;-66
2021/08/22 03:18:18;;;;;;;;;0.00;0.00;;;;;27.00;43.07;101015.78;5074630;28;45514;-66
2021/08/22 03:20:44;;;;;;;;;0.00;0.00;;;;;27.00;43.14;101018.50;5074496;28;45411;-65
2021/08/22 03:23:10;;;;;;;;;0.00;0.00;;;;;27.00;43.38;101012.16;5074637;28;45431;-65
2021/08/22 03:25:42;;;;;;;;;0.00;0.00;;;;;26.98;43.60;101008.63;5075097;28;45412;-65
2021/08/22 03:28:08;;;;;;;;;0.00;0.00;;;;;26.97;42.91;101009.63;5056438;28;45424;-65
2021/08/22 03:30:33;;;;;;;;;0.00;0.00;;;;;26.97;43.54;101002.28;5074437;28;46168;-65
2021/08/22 03:32:58;;;;;;;;;0.00;0.00;;;;;26.99;43.10;101016.75;5073209;28;45513;-65
2021/08/22 03:35:24;;;;;;;;;0.00;0.00;;;;;26.97;43.62;101009.63;5074556;28;45446;-65
2021/08/22 03:37:51;;;;;;;;;0.00;0.00;;;;;26.97;43.61;101017.81;5074570;28;45501;-66
2021/08/22 03:40:17;;;;;;;;;0.00;0.00;;;;;26.94;43.41;101017.00;5056166;28;47159;-66
2021/08/22 03:42:42;;;;;;;;;0.00;0.00;;;;;26.94;43.61;101018.81;5056026;28;45512;-66
2021/08/22 03:45:08;;;;;;;;;0.00;0.00;;;;;26.94;43.80;101019.72;5074636;28;45409;-66
2021/08/22 03:47:33;;;;;;;;;0.00;0.00;;;;;26.92;43.66;101018.91;5056287;28;45888;-66
2021/08/22 03:49:59;;;;;;;;;0.00;0.00;;;;;26.93;43.32;101017.94;5074028;28;46160;-66
2021/08/22 03:52:24;;;;;;;;;0.00;0.00;;;;;26.92;43.84;101016.19;5074182;28;45447;-66
2021/08/22 03:54:49;;;;;;;;;0.00;0.00;;;;;26.90;43.59;101012.63;5074283;28;46128;-66
2021/08/22 03:57:15;;;;;;;;;0.00;0.00;;;;;26.92;43.72;101018.00;5073970;28;45460;-66
2021/08/22 03:59:40;;;;;;;;;0.00;0.00;;;;;26.92;43.27;101018.91;5074000;28;45433;-66
2021/08/22 04:02:06;;;;;;;;;0.00;0.00;;;;;26.90;43.52;101018.06;5075922;27;45779;-66
2021/08/22 04:04:32;;;;;;;;;0.00;0.00;;;;;26.90;43.65;101020.81;5077621;28;45527;-66
2021/08/22 04:06:57;;;;;;;;;0.00;0.00;;;;;26.91;43.63;101022.59;5077917;28;45753;-66
2021/08/22 04:09:24;;;;;;;;;0.00;0.00;;;;;26.90;43.82;101023.53;5042604;28;47606;-66
2021/08/22 04:11:55;;;;;;;;;0.00;0.00;;;;;26.90;43.22;101028.13;5077202;28;45413;-66
2021/08/22 04:14:22;;;;;;;;;0.00;0.00;;;;;26.91;43.53;101027.16;5077716;28;45479;-66
2021/08/22 04:16:48;;;;;;;;;0.00;0.00;;;;;26.87;43.99;101026.44;5077643;28;45575;-66
2021/08/22 04:19:14;;;;;;;;;0.00;0.00;;;;;26.88;43.77;101032.75;5058890;28;45371;-66
2021/08/22 04:21:46;;;;;;;;;0.00;0.00;;;;;26.88;43.58;101036.38;5077526;28;45731;-66
2021/08/22 04:24:11;;;;;;;;;0.00;0.00;;;;;26.87;43.07;101029.16;5077471;28;45736;-66
2021/08/22 04:26:40;;;;;;;;;0.00;0.00;;;;;26.86;43.56;101032.84;5077475;28;45507;-66
2021/08/22 04:29:05;;;;;;;;;0.00;0.00;;;;;26.87;43.46;101023.69;5058830;28;46768;-66
2021/08/22 04:31:30;;;;;;;;;0.00;0.00;;;;;26.86;43.47;101032.84;5076307;28;45843;-66
2021/08/22 04:33:56;;;;;;;;;0.00;0.00;;;;;26.86;43.63;101031.97;5077078;28;45469;-66
2021/08/22 04:36:21;;;;;;;;;0.00;0.00;;;;;26.84;43.22;101029.28;5077516;28;45405;-66
2021/08/22 04:38:46;;;;;;;;;0.00;0.00;;;;;26.85;43.62;101030.22;5077032;28;45406;-66
2021/08/22 04:41:19;;;;;;;;;0.00;0.00;;;;;26.82;43.30;101033.94;5076995;28;45330;-66
2021/08/22 04:43:45;;;;;;;;;0.00;0.00;;;;;26.82;43.66;101031.22;5058659;28;45442;-66
2021/08/22 04:46:10;;;;;;;;;0.00;0.00;;;;;26.82;43.24;101028.50;5058958;28;45375;-66
2021/08/22 04:48:35;;;;;;;;;0.00;0.00;;;;;26.79;43.78;101023.19;5076991;28;45349;-66
2021/08/22 04:51:01;;;;;;;;;0.00;0.00;;;;;26.79;43.75;101036.84;5076702;28;45548;-66
2021/08/22 04:53:26;;;;;;;;;0.00;0.00;;;;;26.79;43.25;101036.84;5076510;28;45473;-66
2021/08/22 04:55:51;;;;;;;;;0.00;0.00;;;;;26.79;43.49;101035.97;5077192;28;45445;-66
2021/08/22 04:58:17;;;;;;;;;0.33;0.00;;;;;26.79;43.26;101041.44;5076496;28;45450;-66
2021/08/22 05:00:42;;;;;;;;;0.00;0.00;;;;;26.80;43.70;101043.19;5042853;28;45743;-66
2021/08/22 05:03:08;;;;;;;;;0.00;0.00;;;;;26.79;43.19;101041.44;5056824;28;45399;-66
2021/08/22 05:05:34;;;;;;;;;0.00;0.00;;;;;26.75;43.78;101040.69;5056450;28;45461;-66
2021/08/22 05:07:59;;;;;;;;;0.00;0.00;;;;;26.76;43.34;101042.44;5056115;28;45488;-66
2021/08/22 05:10:25;;;;;;;;;0.00;0.00;;;;;26.79;43.64;101041.44;5072466;28;45801;-66
2021/08/22 05:12:50;;;;;;;;;0.00;0.00;;;;;26.78;43.58;101037.78;5073385;28;45444;-66
2021/08/22 05:15:15;;;;;;;;;0.00;0.00;;;;;26.79;43.14;101049.59;5076903;28;45468;-66
2021/08/22 05:17:41;;;;;;;;;0.00;0.00;;;;;26.77;43.73;101041.50;5076283;28;45652;-66
2021/08/22 05:20:07;;;;;;;;;0.00;0.00;;;;;26.78;43.83;101050.56;5076413;28;45449;-66
2021/08/22 05:22:32;;;;;;;;;0.00;0.00;;;;;26.77;43.44;101052.41;5076778;28;45482;-66
2021/08/22 05:24:58;;;;;;;;;0.00;0.00;;;;;26.77;43.75;101049.69;5076559;28;45354;-66
2021/08/22 05:27:23;;;;;;;;;0.00;0.00;;;;;26.77;43.17;101049.69;5076243;28;46202;-66
2021/08/22 05:29:49;;;;;;;;;0.00;0.00;;;;;26.76;43.55;101050.63;5076387;28;45524;-66
2021/08/22 05:32:14;;;;;;;;;0.00;0.00;;;;;26.75;43.73;101051.59;5075134;28;45371;-66
2021/08/22 05:34:39;;;;;;;;;0.00;0.00;;;;;26.74;43.68;101050.72;5076520;28;45385;-66
2021/08/22 05:37:05;;;;;;;;;0.00;0.00;;;;;26.76;43.58;101058.81;5076303;28;45395;-66
2021/08/22 05:39:32;;;;;;;;;0.00;0.00;;;;;26.75;43.79;101059.78;5076306;28;45497;-66
2021/08/22 05:41:57;;;;;;;;;0.00;0.00;;;;;26.70;43.33;101057.28;5076187;28;45377;-66
2021/08/22 05:44:22;;;;;;;;;0.00;0.00;;;;;26.73;43.52;101061.69;5076227;28;45405;-66
2021/08/22 05:46:47;;;;;;;;;0.00;0.00;;;;;26.73;43.24;101065.31;5057833;28;47217;-66
2021/08/22 05:49:13;;;;;;;;;0.00;0.00;;;;;26.73;43.89;101070.75;5076025;28;45523;-66
2021/08/22 05:51:42;;;;;;;;;0.00;0.00;;;;;26.73;43.65;101061.69;5075962;28;45495;-66
2021/08/22 05:54:08;;;;;;;;;0.00;0.00;;;;;26.71;43.25;101060.88;5076392;28;45544;-66
2021/08/22 05:56:33;;;;;;;;;0.00;0.00;;;;;26.72;43.50;101073.56;5057431;28;47214;-66
2021/08/22 05:58:58;;;;;;;;;0.00;0.00;;;;;26.70;43.54;101065.47;5075885;28;45396;-66
2021/08/22 06:01:24;;;;;;;;;0.00;0.00;;;;;26.70;43.26;101060.00;5075905;27;45425;-66
2021/08/22 06:03:49;;;;;;;;;0.00;0.00;;;;;26.71;43.10;101072.69;5075953;28;45450;-66
2021/08/22 06:06:14;;;;;;;;;0.00;0.00;;;;;26.71;43.44;101078.13;5075701;28;46375;-66
2021/08/22 06:08:40;;;;;;;;;0.00;0.00;;;;;26.71;43.63;101088.19;5075695;28;45428;-66
2021/08/22 06:11:05;;;;;;;;;0.00;0.00;;;;;26.71;43.62;101082.72;5075771;28;45415;-66
2021/08/22 06:13:31;;;;;;;;;0.00;0.00;;;;;26.71;43.21;101083.59;5076009;28;45419;-66
2021/08/22 06:15:56;;;;;;;;;0.00;0.00;;;;;26.69;43.64;101085.50;5075505;28;46488;-66
2021/08/22 06:18:22;;;;;;;;;0.00;0.00;;;;;26.70;43.24;101086.38;5075483;28;45409;-66
2021/08/22 06:20:47;;;;;;;;;0.00;0.00;;;;;26.71;42.99;101090.91;5075630;28;45754;-66
2021/08/22 06:23:13;;;;;;;;;0.33;0.00;;;;;26.70;43.37;101097.31;5075871;28;45411;-66
2021/08/22 06:25:38;;;;;;;;;0.00;0.00;;;;;26.70;43.53;101091.84;5075052;28;45509;-65
2021/08/22 06:28:04;;;;;;;;;0.00;0.00;;;;;26.70;43.33;101102.75;5074929;28;45737;-65
2021/08/22 06:30:30;;;;;;;;;0.00;0.00;;;;;26.68;43.00;101101.94;5075485;28;46008;-65
2021/08/22 06:32:56;;;;;;;;;0.00;0.00;;;;;26.69;43.12;101101.00;5074577;28;45627;-65
2021/08/22 06:35:22;;;;;;;;;0.00;0.00;;;;;26.70;43.16;101102.75;5075121;28;45479;-65
2021/08/22 06:37:48;;;;;;;;;0.00;0.00;;;;;26.69;43.45;101110.06;5075330;28;45421;-65
2021/08/22 06:40:15;;;;;;;;;0.00;0.00;;;;;26.70;43.41;101108.22;5057145;28;45466;-65
2021/08/22 06:42:40;;;;;;;;;0.00;0.00;;;;;26.70;43.54;101109.13;5075510;28;45430;-65
2021/08/22 06:45:07;;;;;;;;;0.00;0.00;;;;;26.67;43.34;101111.97;5056781;28;46765;-65
2021/08/22 06:47:32;;;;;;;;;0.00;0.00;;;;;26.70;43.53;101119.13;5075334;28;45382;-65
2021/08/22 06:49:57;;;;;;;;;0.00;0.00;;;;;26.68;43.58;101124.69;5075280;28;45341;-65
2021/08/22 06:52:24;;;;;;;;;0.00;0.00;;;;;26.70;43.04;101121.84;5057169;28;45319;-65
2021/08/22 06:54:49;;;;;;;;;0.00;0.00;;;;;26.71;43.42;101120.91;5074985;28;46051;-65
2021/08/22 06:57:16;;;;;;;;;0.00;0.00;;;;;26.73;43.06;101127.19;5056947;28;45727;-65
2021/08/22 06:59:42;;;;;;;;;0.00;0.00;;;;;26.73;43.43;101130.78;5074597;28;45547;-65
2021/08/22 07:02:07;;;;;;;;;0.00;0.00;;;;;26.74;43.01;101126.22;5075013;27;45532;-65
2021/08/22 07:04:34;;;;;;;;;0.00;0.00;;;;;26.75;43.46;101138.91;5056504;28;47907;-65
2021/08/22 07:06:59;;;;;;;;;0.00;0.00;;;;;26.76;43.36;101137.94;5074854;28;45452;-66
2021/08/22 07:09:24;;;;;;;;;0.00;0.00;;;;;26.74;42.81;101137.13;5075217;28;45397;-65
2021/08/22 07:11:50;;;;;;;;;0.00;0.00;;;;;26.77;43.16;101136.13;5075133;28;45442;-65
2021/08/22 07:14:15;;;;;;;;;0.00;0.00;;;;;26.77;43.01;101128.81;5074539;28;45452;-65
2021/08/22 07:16:42;;;;;;;;;0.00;0.00;;;;;26.77;43.21;101131.53;5074866;28;45503;-65
2021/08/22 07:19:07;;;;;;;;;0.00;0.00;;;;;26.75;43.11;101133.47;5056660;28;45357;-65
2021/08/22 07:21:34;;;;;;;;;0.00;0.00;;;;;26.79;43.02;101146.00;5074908;28;45445;-65
2021/08/22 07:23:59;;;;;;;;;0.00;0.00;;;;;26.78;43.29;101133.28;5074721;28;46423;-65
2021/08/22 07:26:25;;;;;;;;;0.00;0.00;;;;;26.80;43.49;101144.16;5074620;28;45487;-65
2021/08/22 07:28:50;;;;;;;;;0.00;0.00;;;;;26.79;43.27;101143.28;5074818;28;45435;-65
2021/08/22 07:31:16;;;;;;;;;0.00;0.00;;;;;26.79;42.85;101146.00;5073144;28;45759;-65
2021/08/22 07:33:41;;;;;;;;;0.00;0.00;;;;;26.80;43.07;101150.47;5073175;28;45632;-65
2021/08/22 07:36:07;;;;;;;;;0.00;0.00;;;;;26.80;43.22;101147.75;5073740;28;45729;-65
2021/08/22 07:38:32;;;;;;;;;0.00;0.00;;;;;26.80;42.76;101147.75;5074598;28;45500;-65
2021/08/22 07:40:58;;;;;;;;;0.00;0.00;;;;;26.80;42.71;101153.22;5074804;28;45475;-65
2021/08/22 07:43:23;;;;;;;;;0.00;0.00;;;;;26.83;42.83;101152.19;5074207;28;45455;-65
2021/08/22 07:45:49;;;;;;;;;0.00;0.00;;;;;26.83;43.39;101150.34;5074330;28;45382;-65
2021/08/22 07:48:14;;;;;;;;;0.00;0.00;;;;;26.82;42.89;101145.84;5056305;28;45768;-65
2021/08/22 07:50:39;;;;;;;;;0.00;0.00;;;;;26.81;42.51;101137.75;5074771;28;45768;-65
2021/08/22 07:53:05;;;;;;;;;0.00;0.00;;;;;26.85;42.96;101140.25;5074141;28;46103;-65
2021/08/22 07:55:30;;;;;;;;;0.00;0.00;;;;;26.85;42.64;101151.16;5056128;28;45525;-65
2021/08/22 07:57:56;;;;;;;;;0.00;0.00;;;;;26.86;42.66;101150.19;5056035;28;45544;-65
2021/08/22 08:00:21;;;;;;;;;0.00;0.00;;;;;26.88;42.93;101151.00;5072458;28;45853;-65
2021/08/22 08:02:47;;;;;;;;;0.00;0.00;;;;;26.90;42.91;101154.53;5074122;28;45520;-65
2021/08/22 08:05:13;;;;;;;;;0.00;0.00;;;;;26.91;42.73;101156.31;5074245;28;45370;-65
2021/08/22 08:07:39;;;;;;;;;0.00;0.00;;;;;26.93;42.55;101151.69;5072036;28;45584;-65
2021/08/22 08:10:06;;;;;;;;;0.00;0.00;;;;;26.96;42.41;101163.41;5056143;28;45833;-65
2021/08/22 08:12:31;;;;;;;;;0.00;0.00;;;;;26.97;42.48;101159.75;5074417;28;46532;-65
2021/08/22 08:14:57;;;;;;;;;0.00;0.00;;;;;26.96;42.77;101157.94;5074022;28;45402;-65
2021/08/22 08:17:23;;;;;;;;;0.00;0.00;;;;;26.98;43.08;101166.94;5074440;28;45803;-65
2021/08/22 08:19:48;;;;;;;;;0.00;0.00;;;;;26.98;42.50;101162.38;5074409;28;45415;-65
2021/08/22 08:22:14;;;;;;;;;0.00;0.00;;;;;27.01;42.18;101167.69;5073703;28;45504;-65
2021/08/22 08:24:39;;;;;;;;;0.00;0.00;;;;;27.03;42.25;101167.63;5073857;28;45524;-65
2021/08/22 08:27:06;;;;;;;;;0.00;0.00;;;;;27.05;42.23;101162.97;5072215;28;45370;-65
2021/08/22 08:29:31;;;;;;;;;0.00;0.00;;;;;27.06;42.50;101175.66;5074135;28;45372;-65
2021/08/22 08:31:56;;;;;;;;;0.00;0.00;;;;;27.09;42.30;101175.53;5072848;28;46038;-65
2021/08/22 08:34:22;;;;;;;;;0.00;0.00;;;;;27.09;42.38;101181.88;5073533;28;45381;-65
2021/08/22 08:36:47;;;;;;;;;0.00;0.00;;;;;27.10;42.63;101171.81;5072031;28;45386;-65
2021/08/22 08:39:14;;;;;;;;;0.00;0.00;;;;;27.13;42.71;101179.88;5074172;28;45683;-65
2021/08/22 08:41:39;;;;;;;;;0.00;0.00;;;;;27.13;42.21;101168.97;5073980;28;45485;-65
2021/08/22 08:44:05;;;;;;;;;0.00;0.00;;;;;27.16;42.50;101170.66;5073776;28;45627;-65
2021/08/22 08:46:53;;;;;;;;;0.00;0.00;;;;;27.18;42.03;101166.88;5073800;28;45428;-65
2021/08/22 08:49:27;;;;;;;;;0.00;0.00;;;;;27.20;42.26;101178.59;5076412;28;45493;-65
2021/08/22 08:52:20;;;;;;;;;0.00;0.00;;;;;27.23;42.15;101175.78;5076882;28;46205;-65
2021/08/22 08:55:09;;;;;;;;;0.67;0.00;;;;;27.24;41.97;101173.91;5058701;28;45456;-65
2021/08/22 08:57:34;;;;;;;;;0.00;0.00;;;;;27.26;42.55;101167.41;5034082;28;45545;-65
2021/08/22 09:00:00;;;;;;;;;0.00;0.00;;;;;27.28;42.08;101181.88;5033552;28;45507;-65
2021/08/22 09:02:25;;;;;;;;;0.00;0.00;;;;;27.29;41.97;101178.19;5016806;28;46594;-65
2021/08/22 09:04:59;;;;;;;;;0.00;0.00;;;;;27.32;42.34;101186.22;5034190;28;45481;-65
2021/08/22 09:08:04;;;;;;;;;0.00;0.00;;;;;27.32;42.43;101188.97;5032877;28;45431;-65
2021/08/22 09:11:17;;;;;;;;;0.00;0.00;;;;;27.33;41.92;101187.13;4994110;28;45539;-66
2021/08/22 09:14:16;;;;;;;;;0.00;0.00;;;;;27.34;41.81;101192.50;4954535;28;47121;-66
2021/08/22 09:17:11;;;;;;;;;0.00;0.00;;;;;27.36;42.36;101197.03;4954565;28;45479;-66
2021/08/22 09:19:56;;;;;;;;;0.00;0.00;;;;;27.36;42.34;101195.16;4955027;28;45537;-66
2021/08/22 09:23:02;;;;;;;;;0.00;0.00;;;;;27.37;42.22;101185.13;4970979;28;45432;-66
2021/08/22 09:25:36;;;;;;;;;0.00;0.00;;;;;27.36;42.25;101195.16;4896834;29;46199;-66
2021/08/22 09:28:51;;;;;;;;;0.00;0.00;;;;;27.35;41.72;101196.16;4897005;29;45474;-66
2021/08/22 09:31:54;;;;;;;;;0.00;0.00;;;;;27.37;42.17;101196.03;4896997;29;45558;-66
2021/08/22 09:34:49;;;;;;;;;0.00;0.00;;;;;27.36;42.12;101199.75;4890723;29;45674;-66
2021/08/22 09:37:29;;;;;;;;;0.00;0.00;;;;;27.36;41.55;101191.56;4877835;29;46225;-66
2021/08/22 09:40:32;;;;;;;;;0.00;0.00;;;;;27.36;42.21;101191.56;4878302;29;45560;-66
2021/08/22 09:43:25;;;;;;;;;0.00;0.00;;;;;27.36;41.58;101195.16;4878211;29;45512;-66
2021/08/22 09:46:27;;;;;;;;;0.00;0.00;;;;;27.36;42.20;101195.16;4878171;29;45496;-66
2021/08/22 09:49:31;;;;;;;;;0.00;0.00;;;;;27.36;42.11;101210.69;4915702;28;45446;-66
2021/08/22 09:52:35;;;;;;;;;0.00;0.00;;;;;27.36;42.28;101206.09;4993359;28;45808;-65
2021/08/22 09:55:38;;;;;;;;;0.00;0.00;;;;;27.37;41.80;101202.41;4977333;28;45540;-65
2021/08/22 09:58:31;;;;;;;;;0.00;0.00;;;;;27.37;42.17;101204.25;4993557;28;45799;-65
2021/08/22 10:01:14;;;;;;;;;0.00;0.00;;;;;27.38;41.84;101209.63;4993051;28;45524;-66
2021/08/22 10:04:04;;;;;;;;;0.00;0.00;;;;;27.39;41.49;101211.41;5051883;28;45435;-66
2021/08/22 10:06:51;;;;;;;;;0.00;0.00;;;;;27.40;42.14;101218.63;5055913;28;45507;-66
2021/08/22 10:09:22;;;;;;;;;0.00;0.00;;;;;27.40;41.60;101213.19;5055792;28;45441;-66
2021/08/22 10:11:47;;;;;;;;;0.00;0.00;;;;;27.41;41.57;101208.59;5055806;28;45405;-66
2021/08/22 10:14:13;;;;;;;;;0.00;0.00;;;;;27.42;42.11;101204.91;5055677;28;45425;-66
2021/08/22 10:16:46;;;;;;;;;0.00;0.00;;;;;27.43;42.03;101210.31;5055906;28;45460;-66
2021/08/22 10:19:11;;;;;;;;;0.00;0.00;;;;;27.44;41.60;101197.53;5054377;28;45422;-66
2021/08/22 10:21:37;;;;;;;;;0.00;0.00;;;;;27.45;42.10;101196.56;5055267;28;46275;-66
2021/08/22 10:24:05;;;;;;;;;0.00;0.00;;;;;27.46;42.02;101195.59;5055291;28;45789;-66
2021/08/22 10:26:46;;;;;;;;;0.00;0.00;;;;;27.48;41.97;101204.59;5055399;28;45459;-66
2021/08/22 10:29:33;;;;;;;;;0.00;0.00;;;;;27.50;41.40;101208.16;5054137;28;45400;-66
2021/08/22 10:32:04;;;;;;;;;0.00;0.00;;;;;27.50;41.48;101195.38;5055178;28;45473;-66
2021/08/22 10:34:34;;;;;;;;;0.00;0.00;;;;;27.51;41.36;101193.50;5073944;28;45687;-66
2021/08/22 10:37:27;;;;;;;;;0.00;0.00;;;;;27.54;41.94;101196.09;5057182;28;45257;-66
2021/08/22 10:39:53;;;;;;;;;0.00;0.00;;;;;27.56;42.01;101193.31;5057288;28;45573;-65
2021/08/22 10:42:22;;;;;;;;;0.00;0.00;;;;;27.55;42.06;101192.41;5075087;28;46607;-65
2021/08/22 10:44:47;;;;;;;;;0.00;0.00;;;;;27.56;41.97;101191.44;5074955;28;45604;-65
2021/08/22 10:47:21;;;;;;;;;0.00;0.00;;;;;27.58;41.38;101195.00;5057307;28;45437;-65
2021/08/22 10:49:52;;;;;;;;;0.00;0.00;;;;;27.60;41.50;101192.19;5075370;28;45526;-65
2021/08/22 10:52:28;;;;;;;;;0.00;0.00;;;;;27.60;41.23;101187.59;5075095;28;45407;-65
2021/08/22 10:55:05;;;;;;;;;0.00;0.00;;;;;27.61;41.85;101189.38;5074665;28;45654;-65
2021/08/22 10:57:49;;;;;;;;;0.00;0.00;;;;;27.63;41.17;101189.28;5054835;28;45492;-65
2021/08/22 11:00:30;;;;;;;;;0.00;0.00;;;;;27.66;41.14;101186.41;5055191;28;45522;-65
2021/08/22 11:03:02;;;;;;;;;0.00;0.00;;;;;27.65;41.57;101185.53;5054838;28;45528;-65
2021/08/22 11:05:31;;;;;;;;;0.00;0.00;;;;;27.66;41.53;101178.22;5054954;28;45561;-65
2021/08/22 11:08:20;;;;;;;;;0.00;0.00;;;;;27.67;41.35;101178.16;5054833;28;45374;-65
2021/08/22 11:11:06;;;;;;;;;0.00;0.00;;;;;27.67;41.56;101172.69;5053928;28;45516;-66
2021/08/22 11:13:35;;;;;;;;;0.00;0.00;;;;;27.69;41.04;101176.22;5054611;28;45694;-66
2021/08/22 11:16:08;;;;;;;;;0.00;0.00;;;;;27.70;40.91;101182.56;5054647;28;45346;-66
2021/08/22 11:18:35;;;;;;;;;0.00;0.00;;;;;27.70;40.94;101180.72;5054621;28;45513;-66
2021/08/22 11:21:00;;;;;;;;;0.00;0.00;;;;;27.70;41.48;101179.84;5054392;28;45425;-66
2021/08/22 11:23:27;;;;;;;;;0.00;0.00;;;;;27.72;41.33;101189.72;5054655;28;45168;-66
2021/08/22 11:26:03;;;;;;;;;0.00;0.00;;;;;27.72;41.50;101184.25;5054451;28;45434;-66
2021/08/22 11:28:28;;;;;;;;;0.00;0.00;;;;;27.72;41.09;101186.09;5054474;28;45378;-66
2021/08/22 11:30:53;;;;;;;;;0.00;0.00;;;;;27.73;40.87;101190.59;5054607;28;45665;-66
2021/08/22 11:33:19;;;;;;;;;0.00;0.00;;;;;27.72;40.68;101189.72;5052926;28;45449;-66
2021/08/22 11:35:47;;;;;;;;;0.00;0.00;;;;;27.74;41.20;101195.13;5054609;28;45543;-66